| Time | Avg. Air Temp | Dew Point | Avg. Rel Humidity | Avg. 2 Min Wind Speed | Max Gust Velocity | MGV Time | MGV Direction | Avg. Spot Wind Velocity |
|---|---|---|---|---|---|---|---|---|
| 2026-05-08 22:50:00 | 0° C | -0° C | 96% | 16 km/h | 17 km/h | 22:49:00 | W | 15 km/h |
| 21:50:00 | 1° C | -1° C | 89% | 16 km/h | 20 km/h | 21:48:00 | W | 17 km/h |
| 20:50:00 | 1° C | 1° C | 100% | 9 km/h | 10 km/h | 20:49:00 | NW | 9 km/h |
| 19:50:00 | 1° C | 2° C | 100% | 12 km/h | 14 km/h | 19:50:00 | NW | 11 km/h |
| 18:50:00 | 2° C | 1° C | 95% | 11 km/h | 18 km/h | 18:47:00 | W | 12 km/h |
| 17:50:00 | 2° C | 2° C | 98% | 14 km/h | 15 km/h | 17:50:00 | SW | 14 km/h |
| 16:50:00 | 2° C | 2° C | 96% | 17 km/h | 19 km/h | 16:50:00 | SW | 15 km/h |
| 15:50:00 | 3° C | 0° C | 83% | 15 km/h | 20 km/h | 15:48:00 | W | 15 km/h |
| 14:50:00 | 4° C | -0° C | 77% | 15 km/h | 20 km/h | 14:50:00 | S | 15 km/h |
| 13:50:00 | 5° C | -3° C | 59% | 13 km/h | 15 km/h | 13:49:00 | S | 13 km/h |
| 12:50:00 | 5° C | -3° C | 61% | 13 km/h | 20 km/h | 12:48:00 | SE | 13 km/h |
| 11:50:00 | 4° C | -3° C | 62% | 20 km/h | 22 km/h | 11:50:00 | S | 20 km/h |
| 10:50:00 | 6° C | -4° C | 52% | 14 km/h | 19 km/h | 10:48:00 | S | 15 km/h |
| 09:50:00 | 6° C | -5° C | 44% | 15 km/h | 17 km/h | 09:49:00 | S | 13 km/h |
| 08:50:00 | 5° C | -6° C | 42% | 13 km/h | 14 km/h | 08:50:00 | S | 13 km/h |
| 07:50:00 | 5° C | -7° C | 42% | 17 km/h | 20 km/h | 07:48:00 | S | 17 km/h |
| 06:50:00 | 5° C | -7° C | 44% | 17 km/h | 17 km/h | 06:46:00 | S | 17 km/h |
| 05:50:00 | 5° C | -7° C | 41% | 17 km/h | 19 km/h | 05:46:00 | W | 17 km/h |
| 04:50:00 | 5° C | -7° C | 45% | 23 km/h | 25 km/h | 04:50:00 | W | 22 km/h |
| 03:50:00 | 4° C | -4° C | 56% | 16 km/h | 19 km/h | 03:46:00 | SW | 17 km/h |
| 02:50:00 | 5° C | -7° C | 38% | 16 km/h | 18 km/h | 02:49:00 | SW | 16 km/h |
| 01:50:00 | 5° C | -7° C | 43% | 19 km/h | 23 km/h | 01:48:00 | W | 19 km/h |
| 00:50:00 | 5° C | -5° C | 51% | 13 km/h | 17 km/h | 00:49:00 | SW | 14 km/h |
| 23:50:00 | 5° C | -5° C | 51% | 18 km/h | 22 km/h | 23:49:00 | SW | 16 km/h |
Subpeak Weather
| Time | Avg. Air Temp | Dew Point | Avg. Rel Humidity | Avg. 2 Min Wind Speed | Max Gust Velocity | MGV Time | MGV Direction | Avg. Spot Wind Velocity |
|---|---|---|---|---|---|---|---|---|
| 2026-05-08 22:50:00 | 0° C | -0° C | 96% | 16 km/h | 17 km/h | 22:49:00 | W | 15 km/h |
| 22:45:00 | 0° C | -1° C | 99% | 14 km/h | 17 km/h | 22:43:00 | W | 15 km/h |
| 22:40:00 | 0° C | 0° C | 100% | 8 km/h | 14 km/h | 22:37:00 | W | 9 km/h |
| 22:35:00 | 0° C | 0° C | 99% | 10 km/h | 14 km/h | 22:32:00 | NW | 10 km/h |
| 22:30:00 | 0° C | -0° C | 96% | 12 km/h | 18 km/h | 22:26:00 | W | 12 km/h |
| 22:25:00 | 0° C | -0° C | 95% | 14 km/h | 20 km/h | 22:22:00 | W | 14 km/h |
| 22:20:00 | 1° C | -0° C | 94% | 16 km/h | 21 km/h | 22:16:00 | W | 17 km/h |
| 22:15:00 | 1° C | -0° C | 93% | 19 km/h | 22 km/h | 22:12:00 | W | 20 km/h |
| 22:10:00 | 1° C | -0° C | 93% | 20 km/h | 22 km/h | 22:07:00 | W | 19 km/h |
| 22:05:00 | 1° C | -0° C | 92% | 17 km/h | 20 km/h | 22:05:00 | W | 15 km/h |
| 22:00:00 | 1° C | -0° C | 91% | 15 km/h | 19 km/h | 21:58:00 | W | 15 km/h |
| 21:55:00 | 1° C | -1° C | 92% | 18 km/h | 20 km/h | 21:53:00 | W | 17 km/h |
| 21:50:00 | 1° C | -1° C | 89% | 16 km/h | 20 km/h | 21:48:00 | W | 17 km/h |




